sensor_id;sensor_type;location;lat;lon;timestamp;temperature;humidity
63260;DHT22;49390;51.380;0.098;2023-04-01T00:01:30;10.90;99.90
63260;DHT22;49390;51.380;0.098;2023-04-01T00:03:59;10.90;99.90
63260;DHT22;49390;51.380;0.098;2023-04-01T00:06:29;11.00;99.90
63260;DHT22;49390;51.380;0.098;2023-04-01T00:08:58;10.90;99.90
63260;DHT22;49390;51.380;0.098;2023-04-01T00:11:26;10.90;99.90
63260;DHT22;49390;51.380;0.098;2023-04-01T00:13:57;10.90;99.90
63260;DHT22;49390;51.380;0.098;2023-04-01T00:16:25;10.90;99.90
63260;DHT22;49390;51.380;0.098;2023-04-01T00:18:56;10.90;99.90
63260;DHT22;49390;51.380;0.098;2023-04-01T00:21:26;10.90;99.90
63260;DHT22;49390;51.380;0.098;2023-04-01T00:23:54;10.90;99.90
63260;DHT22;49390;51.380;0.098;2023-04-01T00:26:22;10.90;99.90
63260;DHT22;49390;51.380;0.098;2023-04-01T00:28:51;10.90;99.90
63260;DHT22;49390;51.380;0.098;2023-04-01T00:31:20;10.90;99.90
63260;DHT22;49390;51.380;0.098;2023-04-01T00:33:52;10.90;99.90
63260;DHT22;49390;51.380;0.098;2023-04-01T00:36:21;10.90;99.90
63260;DHT22;49390;51.380;0.098;2023-04-01T00:38:50;10.90;99.90
63260;DHT22;49390;51.380;0.098;2023-04-01T00:41:20;10.90;99.90
63260;DHT22;49390;51.380;0.098;2023-04-01T00:43:50;10.80;99.90
63260;DHT22;49390;51.380;0.098;2023-04-01T00:46:19;10.90;99.90
63260;DHT22;49390;51.380;0.098;2023-04-01T00:48:51;10.90;99.90
63260;DHT22;49390;51.380;0.098;2023-04-01T00:51:23;10.80;99.90
63260;DHT22;49390;51.380;0.098;2023-04-01T00:53:56;10.80;99.90
63260;DHT22;49390;51.380;0.098;2023-04-01T00:56:30;10.80;99.90
63260;DHT22;49390;51.380;0.098;2023-04-01T00:59:06;10.80;99.90
63260;DHT22;49390;51.380;0.098;2023-04-01T01:01:36;10.80;99.90
63260;DHT22;49390;51.380;0.098;2023-04-01T01:04:06;10.80;99.90
63260;DHT22;49390;51.380;0.098;2023-04-01T01:12:20;10.80;99.90
63260;DHT22;49390;51.380;0.098;2023-04-01T01:18:03;10.80;99.90
63260;DHT22;49390;51.380;0.098;2023-04-01T01:20:48;10.80;99.90
63260;DHT22;49390;51.380;0.098;2023-04-01T01:37:56;10.70;99.90
63260;DHT22;49390;51.380;0.098;2023-04-01T01:40:27;10.70;99.90
63260;DHT22;49390;51.380;0.098;2023-04-01T01:43:04;10.70;99.90
63260;DHT22;49390;51.380;0.098;2023-04-01T01:45:38;10.70;99.90
63260;DHT22;49390;51.380;0.098;2023-04-01T01:48:10;10.60;99.90
63260;DHT22;49390;51.380;0.098;2023-04-01T01:50:40;10.60;99.90
63260;DHT22;49390;51.380;0.098;2023-04-01T01:53:12;10.60;99.90
63260;DHT22;49390;51.380;0.098;2023-04-01T01:55:43;10.60;99.90
63260;DHT22;49390;51.380;0.098;2023-04-01T01:58:30;10.50;99.90
63260;DHT22;49390;51.380;0.098;2023-04-01T02:01:03;10.50;99.90
63260;DHT22;49390;51.380;0.098;2023-04-01T02:03:36;10.50;99.90
63260;DHT22;49390;51.380;0.098;2023-04-01T02:06:06;10.50;99.90
63260;DHT22;49390;51.380;0.098;2023-04-01T02:11:12;10.40;99.90
63260;DHT22;49390;51.380;0.098;2023-04-01T02:16:36;10.40;99.90
63260;DHT22;49390;51.380;0.098;2023-04-01T02:19:10;10.40;99.90
63260;DHT22;49390;51.380;0.098;2023-04-01T02:21:40;10.30;99.90
63260;DHT22;49390;51.380;0.098;2023-04-01T02:24:14;10.30;99.90
63260;DHT22;49390;51.380;0.098;2023-04-01T02:26:43;10.30;99.90
63260;DHT22;49390;51.380;0.098;2023-04-01T02:29:13;10.30;99.90
63260;DHT22;49390;51.380;0.098;2023-04-01T02:31:42;10.30;99.90
63260;DHT22;49390;51.380;0.098;2023-04-01T02:34:12;10.30;99.90
63260;DHT22;49390;51.380;0.098;2023-04-01T02:36:41;10.30;99.90
63260;DHT22;49390;51.380;0.098;2023-04-01T02:39:10;10.30;99.90
63260;DHT22;49390;51.380;0.098;2023-04-01T02:41:43;10.30;99.90
63260;DHT22;49390;51.380;0.098;2023-04-01T02:44:14;10.30;99.90
63260;DHT22;49390;51.380;0.098;2023-04-01T02:46:43;10.20;99.90
63260;DHT22;49390;51.380;0.098;2023-04-01T02:49:12;10.20;99.90
63260;DHT22;49390;51.380;0.098;2023-04-01T02:51:41;10.20;99.90
63260;DHT22;49390;51.380;0.098;2023-04-01T02:54:11;10.20;99.90
63260;DHT22;49390;51.380;0.098;2023-04-01T02:56:39;10.20;99.90
63260;DHT22;49390;51.380;0.098;2023-04-01T02:59:08;10.20;99.90
63260;DHT22;49390;51.380;0.098;2023-04-01T03:01:36;10.20;99.90
63260;DHT22;49390;51.380;0.098;2023-04-01T03:04:05;10.20;99.90
63260;DHT22;49390;51.380;0.098;2023-04-01T03:06:33;10.20;99.90
63260;DHT22;49390;51.380;0.098;2023-04-01T03:09:01;10.20;99.90
63260;DHT22;49390;51.380;0.098;2023-04-01T03:11:31;10.20;99.90
63260;DHT22;49390;51.380;0.098;2023-04-01T03:14:00;10.20;99.90
63260;DHT22;49390;51.380;0.098;2023-04-01T03:16:28;10.20;99.90
63260;DHT22;49390;51.380;0.098;2023-04-01T03:18:56;10.20;99.90
63260;DHT22;49390;51.380;0.098;2023-04-01T03:21:26;10.20;99.90
63260;DHT22;49390;51.380;0.098;2023-04-01T03:23:55;10.20;99.90
63260;DHT22;49390;51.380;0.098;2023-04-01T03:26:22;10.20;99.90
63260;DHT22;49390;51.380;0.098;2023-04-01T03:28:51;10.10;99.90
63260;DHT22;49390;51.380;0.098;2023-04-01T03:31:19;10.10;99.90
63260;DHT22;49390;51.380;0.098;2023-04-01T03:33:55;10.10;99.90
63260;DHT22;49390;51.380;0.098;2023-04-01T03:36:23;10.10;99.90
63260;DHT22;49390;51.380;0.098;2023-04-01T03:38:54;10.10;99.90
63260;DHT22;49390;51.380;0.098;2023-04-01T03:41:34;10.10;99.90
63260;DHT22;49390;51.380;0.098;2023-04-01T03:44:03;10.10;99.90
63260;DHT22;49390;51.380;0.098;2023-04-01T03:46:34;10.10;99.90
63260;DHT22;49390;51.380;0.098;2023-04-01T03:49:07;10.10;99.90
63260;DHT22;49390;51.380;0.098;2023-04-01T03:51:42;10.10;99.90
63260;DHT22;49390;51.380;0.098;2023-04-01T03:54:11;10.10;99.90
63260;DHT22;49390;51.380;0.098;2023-04-01T03:56:41;10.10;99.90
63260;DHT22;49390;51.380;0.098;2023-04-01T03:59:09;10.10;99.90
63260;DHT22;49390;51.380;0.098;2023-04-01T04:01:43;10.10;99.90
63260;DHT22;49390;51.380;0.098;2023-04-01T04:04:12;10.10;99.90
63260;DHT22;49390;51.380;0.098;2023-04-01T04:06:45;10.10;99.90
63260;DHT22;49390;51.380;0.098;2023-04-01T04:09:14;10.10;99.90
63260;DHT22;49390;51.380;0.098;2023-04-01T04:11:46;10.10;99.90
63260;DHT22;49390;51.380;0.098;2023-04-01T04:14:23;10.00;99.90
63260;DHT22;49390;51.380;0.098;2023-04-01T04:16:52;10.00;99.90
63260;DHT22;49390;51.380;0.098;2023-04-01T04:19:23;10.00;99.90
63260;DHT22;49390;51.380;0.098;2023-04-01T04:21:51;10.00;99.90
63260;DHT22;49390;51.380;0.098;2023-04-01T04:24:19;10.00;99.90
63260;DHT22;49390;51.380;0.098;2023-04-01T04:27:03;10.00;99.90
63260;DHT22;49390;51.380;0.098;2023-04-01T04:29:31;10.00;99.90
63260;DHT22;49390;51.380;0.098;2023-04-01T04:32:01;10.00;99.90
63260;DHT22;49390;51.380;0.098;2023-04-01T04:34:30;10.00;99.90
63260;DHT22;49390;51.380;0.098;2023-04-01T04:36:59;10.00;99.90
63260;DHT22;49390;51.380;0.098;2023-04-01T04:39:31;10.00;99.90
63260;DHT22;49390;51.380;0.098;2023-04-01T04:42:01;10.00;99.90
63260;DHT22;49390;51.380;0.098;2023-04-01T04:44:33;10.00;99.90
63260;DHT22;49390;51.380;0.098;2023-04-01T04:47:04;9.90;99.90
63260;DHT22;49390;51.380;0.098;2023-04-01T04:49:37;9.90;99.90
63260;DHT22;49390;51.380;0.098;2023-04-01T04:52:14;9.90;99.90
63260;DHT22;49390;51.380;0.098;2023-04-01T04:54:42;9.90;99.90
63260;DHT22;49390;51.380;0.098;2023-04-01T04:57:10;9.90;99.90
63260;DHT22;49390;51.380;0.098;2023-04-01T04:59:45;9.90;99.90
63260;DHT22;49390;51.380;0.098;2023-04-01T05:02:32;9.80;99.90
63260;DHT22;49390;51.380;0.098;2023-04-01T05:05:00;9.80;99.90
63260;DHT22;49390;51.380;0.098;2023-04-01T05:07:29;9.90;99.90
63260;DHT22;49390;51.380;0.098;2023-04-01T05:09:57;9.80;99.90
63260;DHT22;49390;51.380;0.098;2023-04-01T05:12:26;9.80;99.90
63260;DHT22;49390;51.380;0.098;2023-04-01T05:14:58;9.80;99.90
63260;DHT22;49390;51.380;0.098;2023-04-01T05:17:27;9.80;99.90
63260;DHT22;49390;51.380;0.098;2023-04-01T05:19:55;9.80;99.90
63260;DHT22;49390;51.380;0.098;2023-04-01T05:22:24;9.90;99.90
63260;DHT22;49390;51.380;0.098;2023-04-01T05:24:53;9.90;99.90
63260;DHT22;49390;51.380;0.098;2023-04-01T05:27:25;9.90;99.90
63260;DHT22;49390;51.380;0.098;2023-04-01T05:32:23;9.90;99.90
63260;DHT22;49390;51.380;0.098;2023-04-01T05:34:52;9.90;99.90
63260;DHT22;49390;51.380;0.098;2023-04-01T05:37:20;9.90;99.90
63260;DHT22;49390;51.380;0.098;2023-04-01T05:39:48;9.90;99.90
63260;DHT22;49390;51.380;0.098;2023-04-01T05:42:16;9.90;99.90
63260;DHT22;49390;51.380;0.098;2023-04-01T05:44:44;9.90;99.90
63260;DHT22;49390;51.380;0.098;2023-04-01T05:47:50;9.90;99.90
63260;DHT22;49390;51.380;0.098;2023-04-01T05:50:19;9.90;99.90
63260;DHT22;49390;51.380;0.098;2023-04-01T05:52:47;9.90;99.90
63260;DHT22;49390;51.380;0.098;2023-04-01T05:55:16;9.80;99.90
63260;DHT22;49390;51.380;0.098;2023-04-01T05:57:47;9.90;99.90
63260;DHT22;49390;51.380;0.098;2023-04-01T06:00:17;9.90;99.90
63260;DHT22;49390;51.380;0.098;2023-04-01T06:02:47;9.90;99.90
63260;DHT22;49390;51.380;0.098;2023-04-01T06:05:22;9.90;99.90
63260;DHT22;49390;51.380;0.098;2023-04-01T06:07:58;9.90;99.90
63260;DHT22;49390;51.380;0.098;2023-04-01T06:16:07;9.90;99.90
63260;DHT22;49390;51.380;0.098;2023-04-01T06:18:54;9.90;99.90
63260;DHT22;49390;51.380;0.098;2023-04-01T06:27:36;9.80;99.90
63260;DHT22;49390;51.380;0.098;2023-04-01T06:35:31;9.80;99.90
63260;DHT22;49390;51.380;0.098;2023-04-01T06:38:13;9.80;99.90
63260;DHT22;49390;51.380;0.098;2023-04-01T06:43:36;9.80;99.90
63260;DHT22;49390;51.380;0.098;2023-04-01T06:46:44;9.80;99.90
63260;DHT22;49390;51.380;0.098;2023-04-01T06:49:54;9.80;99.90
63260;DHT22;49390;51.380;0.098;2023-04-01T06:55:42;9.80;99.90
63260;DHT22;49390;51.380;0.098;2023-04-01T06:58:39;9.80;99.90
63260;DHT22;49390;51.380;0.098;2023-04-01T07:01:18;9.80;99.90
63260;DHT22;49390;51.380;0.098;2023-04-01T07:04:00;9.80;99.90
63260;DHT22;49390;51.380;0.098;2023-04-01T07:06:35;9.80;99.90
63260;DHT22;49390;51.380;0.098;2023-04-01T07:09:11;9.80;99.90
63260;DHT22;49390;51.380;0.098;2023-04-01T07:12:43;9.80;99.90
63260;DHT22;49390;51.380;0.098;2023-04-01T07:15:39;9.80;99.90
63260;DHT22;49390;51.380;0.098;2023-04-01T07:18:21;9.80;99.90
63260;DHT22;49390;51.380;0.098;2023-04-01T07:20:54;9.80;99.90
63260;DHT22;49390;51.380;0.098;2023-04-01T07:23:37;9.90;99.90
63260;DHT22;49390;51.380;0.098;2023-04-01T07:26:24;9.90;99.90
63260;DHT22;49390;51.380;0.098;2023-04-01T07:28:58;10.00;99.90
63260;DHT22;49390;51.380;0.098;2023-04-01T07:37:32;10.10;99.90
63260;DHT22;49390;51.380;0.098;2023-04-01T07:45:26;10.10;99.90
63260;DHT22;49390;51.380;0.098;2023-04-01T07:56:15;10.20;99.90
63260;DHT22;49390;51.380;0.098;2023-04-01T07:58:52;10.20;99.90
63260;DHT22;49390;51.380;0.098;2023-04-01T08:05:04;10.10;99.90
63260;DHT22;49390;51.380;0.098;2023-04-01T08:17:31;10.00;99.90
63260;DHT22;49390;51.380;0.098;2023-04-01T08:25:42;9.90;99.90
63260;DHT22;49390;51.380;0.098;2023-04-01T08:28:27;9.90;99.90
63260;DHT22;49390;51.380;0.098;2023-04-01T08:31:16;9.90;99.90
63260;DHT22;49390;51.380;0.098;2023-04-01T08:33:47;9.90;99.90
63260;DHT22;49390;51.380;0.098;2023-04-01T08:36:22;9.90;99.90
63260;DHT22;49390;51.380;0.098;2023-04-01T08:39:16;10.00;99.90
63260;DHT22;49390;51.380;0.098;2023-04-01T09:22:42;10.70;99.90
63260;DHT22;49390;51.380;0.098;2023-04-01T09:27:57;10.70;99.90
63260;DHT22;49390;51.380;0.098;2023-04-01T09:36:45;10.90;99.90
63260;DHT22;49390;51.380;0.098;2023-04-01T09:39:37;10.90;99.90
63260;DHT22;49390;51.380;0.098;2023-04-01T09:46:06;11.10;99.90
63260;DHT22;49390;51.380;0.098;2023-04-01T10:02:56;11.10;99.90
63260;DHT22;49390;51.380;0.098;2023-04-01T10:12:07;11.10;99.90
63260;DHT22;49390;51.380;0.098;2023-04-01T10:23:27;10.90;99.90
63260;DHT22;49390;51.380;0.098;2023-04-01T10:36:56;11.00;99.90
63260;DHT22;49390;51.380;0.098;2023-04-01T10:51:41;11.10;99.90
63260;DHT22;49390;51.380;0.098;2023-04-01T10:54:45;11.10;99.90
63260;DHT22;49390;51.380;0.098;2023-04-01T11:06:57;11.40;99.90
63260;DHT22;49390;51.380;0.098;2023-04-01T11:15:26;11.80;99.90
63260;DHT22;49390;51.380;0.098;2023-04-01T11:18:41;11.70;99.90
63260;DHT22;49390;51.380;0.098;2023-04-01T11:27:08;11.60;99.90
63260;DHT22;49390;51.380;0.098;2023-04-01T11:33:06;11.40;99.90
63260;DHT22;49390;51.380;0.098;2023-04-01T11:44:29;11.30;99.90
63260;DHT22;49390;51.380;0.098;2023-04-01T12:22:49;11.80;99.90
63260;DHT22;49390;51.380;0.098;2023-04-01T12:39:51;11.80;99.90
63260;DHT22;49390;51.380;0.098;2023-04-01T13:02:18;11.90;99.90
63260;DHT22;49390;51.380;0.098;2023-04-01T13:07:46;12.10;99.90
63260;DHT22;49390;51.380;0.098;2023-04-01T13:18:43;12.10;99.90
63260;DHT22;49390;51.380;0.098;2023-04-01T13:21:20;12.10;99.90
63260;DHT22;49390;51.380;0.098;2023-04-01T13:24:22;12.10;99.90
63260;DHT22;49390;51.380;0.098;2023-04-01T13:36:17;12.00;99.90
63260;DHT22;49390;51.380;0.098;2023-04-01T13:42:00;12.10;99.90
63260;DHT22;49390;51.380;0.098;2023-04-01T13:44:49;12.30;99.90
63260;DHT22;49390;51.380;0.098;2023-04-01T13:58:38;12.80;99.90
63260;DHT22;49390;51.380;0.098;2023-04-01T14:04:25;12.90;99.90
63260;DHT22;49390;51.380;0.098;2023-04-01T14:07:16;13.00;99.90
63260;DHT22;49390;51.380;0.098;2023-04-01T14:21:07;13.10;99.90
63260;DHT22;49390;51.380;0.098;2023-04-01T14:38:26;12.90;99.90
63260;DHT22;49390;51.380;0.098;2023-04-01T14:50:09;12.70;99.90
63260;DHT22;49390;51.380;0.098;2023-04-01T14:52:45;12.70;99.90
63260;DHT22;49390;51.380;0.098;2023-04-01T14:55:33;12.70;99.90
63260;DHT22;49390;51.380;0.098;2023-04-01T14:58:17;12.60;99.90
63260;DHT22;49390;51.380;0.098;2023-04-01T15:03:30;12.40;99.90
63260;DHT22;49390;51.380;0.098;2023-04-01T15:23:17;12.00;99.90
63260;DHT22;49390;51.380;0.098;2023-04-01T15:49:04;11.60;99.90
63260;DHT22;49390;51.380;0.098;2023-04-01T15:52:02;11.50;99.90
63260;DHT22;49390;51.380;0.098;2023-04-01T16:09:02;11.30;99.90
63260;DHT22;49390;51.380;0.098;2023-04-01T16:14:49;11.20;99.90
63260;DHT22;49390;51.380;0.098;2023-04-01T16:23:37;11.10;99.90
63260;DHT22;49390;51.380;0.098;2023-04-01T16:26:15;11.10;99.90
63260;DHT22;49390;51.380;0.098;2023-04-01T16:34:40;11.10;99.90
63260;DHT22;49390;51.380;0.098;2023-04-01T16:37:13;11.10;99.90
63260;DHT22;49390;51.380;0.098;2023-04-01T16:39:50;11.10;99.90
63260;DHT22;49390;51.380;0.098;2023-04-01T16:42:43;11.00;99.90
63260;DHT22;49390;51.380;0.098;2023-04-01T16:48:01;10.90;99.90
63260;DHT22;49390;51.380;0.098;2023-04-01T16:55:50;10.90;99.90
63260;DHT22;49390;51.380;0.098;2023-04-01T16:58:25;10.90;99.90
63260;DHT22;49390;51.380;0.098;2023-04-01T17:03:46;10.80;99.90
63260;DHT22;49390;51.380;0.098;2023-04-01T17:22:13;10.70;99.90
63260;DHT22;49390;51.380;0.098;2023-04-01T17:28:11;10.70;99.90
63260;DHT22;49390;51.380;0.098;2023-04-01T17:31:02;10.70;99.90
63260;DHT22;49390;51.380;0.098;2023-04-01T17:33:48;10.70;99.90
63260;DHT22;49390;51.380;0.098;2023-04-01T17:42:12;10.70;99.90
63260;DHT22;49390;51.380;0.098;2023-04-01T17:45:11;10.70;99.90
63260;DHT22;49390;51.380;0.098;2023-04-01T17:54:06;10.70;99.90
63260;DHT22;49390;51.380;0.098;2023-04-01T17:57:10;10.70;99.90
63260;DHT22;49390;51.380;0.098;2023-04-01T18:00:59;10.70;99.90
63260;DHT22;49390;51.380;0.098;2023-04-01T18:03:21;10.60;99.90
63260;DHT22;49390;51.380;0.098;2023-04-01T18:11:34;10.60;99.90
63260;DHT22;49390;51.380;0.098;2023-04-01T18:19:09;10.60;99.90
63260;DHT22;49390;51.380;0.098;2023-04-01T18:27:02;10.60;99.90
63260;DHT22;49390;51.380;0.098;2023-04-01T18:43:54;10.60;99.90
63260;DHT22;49390;51.380;0.098;2023-04-01T18:49:26;10.50;99.90
63260;DHT22;49390;51.380;0.098;2023-04-01T18:54:46;10.50;99.90
63260;DHT22;49390;51.380;0.098;2023-04-01T18:57:18;10.50;99.90
63260;DHT22;49390;51.380;0.098;2023-04-01T18:59:54;10.50;99.90
63260;DHT22;49390;51.380;0.098;2023-04-01T19:02:45;10.50;99.90
63260;DHT22;49390;51.380;0.098;2023-04-01T19:05:29;10.50;99.90
63260;DHT22;49390;51.380;0.098;2023-04-01T19:21:12;10.20;99.90
63260;DHT22;49390;51.380;0.098;2023-04-01T19:26:42;10.10;99.90
63260;DHT22;49390;51.380;0.098;2023-04-01T19:37:28;10.10;99.90
63260;DHT22;49390;51.380;0.098;2023-04-01T19:51:51;9.70;99.90
63260;DHT22;49390;51.380;0.098;2023-04-01T19:57:34;9.60;99.90
63260;DHT22;49390;51.380;0.098;2023-04-01T20:00:44;9.60;99.90
63260;DHT22;49390;51.380;0.098;2023-04-01T20:03:44;9.50;99.90
63260;DHT22;49390;51.380;0.098;2023-04-01T20:12:10;9.40;99.90
63260;DHT22;49390;51.380;0.098;2023-04-01T20:14:51;9.30;99.90
63260;DHT22;49390;51.380;0.098;2023-04-01T20:17:29;9.30;99.90
63260;DHT22;49390;51.380;0.098;2023-04-01T20:25:19;9.30;99.90
63260;DHT22;49390;51.380;0.098;2023-04-01T20:52:41;9.20;99.90
63260;DHT22;49390;51.380;0.098;2023-04-01T21:06:43;9.20;99.90
63260;DHT22;49390;51.380;0.098;2023-04-01T21:09:44;9.20;99.90
63260;DHT22;49390;51.380;0.098;2023-04-01T21:23:58;9.20;99.90
63260;DHT22;49390;51.380;0.098;2023-04-01T21:26:57;9.20;99.90
63260;DHT22;49390;51.380;0.098;2023-04-01T21:43:30;9.10;99.90
63260;DHT22;49390;51.380;0.098;2023-04-01T22:00:21;9.00;99.90
63260;DHT22;49390;51.380;0.098;2023-04-01T22:08:51;8.90;99.90
63260;DHT22;49390;51.380;0.098;2023-04-01T22:20:48;8.90;99.90
63260;DHT22;49390;51.380;0.098;2023-04-01T22:23:29;8.90;99.90
63260;DHT22;49390;51.380;0.098;2023-04-01T22:31:01;8.90;99.90
63260;DHT22;49390;51.380;0.098;2023-04-01T22:50:50;8.90;99.90
63260;DHT22;49390;51.380;0.098;2023-04-01T22:56:15;8.90;99.90
63260;DHT22;49390;51.380;0.098;2023-04-01T22:58:55;9.00;99.90
63260;DHT22;49390;51.380;0.098;2023-04-01T23:01:28;9.00;99.90
63260;DHT22;49390;51.380;0.098;2023-04-01T23:03:58;8.90;99.90
63260;DHT22;49390;51.380;0.098;2023-04-01T23:06:37;8.90;99.90
63260;DHT22;49390;51.380;0.098;2023-04-01T23:09:25;8.90;99.90
63260;DHT22;49390;51.380;0.098;2023-04-01T23:12:29;8.90;99.90
63260;DHT22;49390;51.380;0.098;2023-04-01T23:15:02;8.90;99.90
63260;DHT22;49390;51.380;0.098;2023-04-01T23:20:19;8.80;99.90
63260;DHT22;49390;51.380;0.098;2023-04-01T23:25:37;8.90;99.90
63260;DHT22;49390;51.380;0.098;2023-04-01T23:38:24;8.80;99.90
63260;DHT22;49390;51.380;0.098;2023-04-01T23:40:54;8.80;99.90
63260;DHT22;49390;51.380;0.098;2023-04-01T23:43:36;8.80;99.90
63260;DHT22;49390;51.380;0.098;2023-04-01T23:46:06;8.80;99.90
63260;DHT22;49390;51.380;0.098;2023-04-01T23:48:43;8.80;99.90
63260;DHT22;49390;51.380;0.098;2023-04-01T23:51:26;8.90;99.90
63260;DHT22;49390;51.380;0.098;2023-04-01T23:54:13;8.80;99.90
63260;DHT22;49390;51.380;0.098;2023-04-01T23:56:44;8.80;99.90
63260;DHT22;49390;51.380;0.098;2023-04-01T23:59:19;8.80;99.90
